createdAt,value
2022-09-01T00:00:30.890Z,13.76
2022-09-01T00:02:39.066Z,13.74
2022-09-01T00:04:48.362Z,13.74
2022-09-01T00:06:59.991Z,13.75
2022-09-01T00:09:10.525Z,13.72
2022-09-01T00:11:21.836Z,13.64
2022-09-01T00:13:33.205Z,13.72
2022-09-01T00:15:48.830Z,13.66
2022-09-01T00:17:57.607Z,13.66
2022-09-01T00:20:07.657Z,13.57
2022-09-01T00:22:15.888Z,13.57
2022-09-01T00:24:26.338Z,13.51
2022-09-01T00:26:37.612Z,13.51
2022-09-01T00:28:45.799Z,13.47
2022-09-01T00:30:53.903Z,13.49
2022-09-01T00:33:03.221Z,13.40
2022-09-01T00:35:12.805Z,13.40
2022-09-01T00:37:20.696Z,13.38
2022-09-01T00:39:28.756Z,13.40
2022-09-01T00:41:41.901Z,13.42
2022-09-01T00:43:52.972Z,13.39
2022-09-01T00:46:01.105Z,13.43
2022-09-01T00:48:09.413Z,13.39
2022-09-01T00:50:21.157Z,13.36
2022-09-01T00:52:35.465Z,13.42
2022-09-01T00:54:47.708Z,13.43
2022-09-01T00:56:59.320Z,13.40
2022-09-01T00:59:09.750Z,13.37
2022-09-01T01:01:17.919Z,13.33
2022-09-01T01:03:26.802Z,13.29
2022-09-01T01:05:41.874Z,13.32
2022-09-01T01:07:50.274Z,13.28
2022-09-01T01:09:58.995Z,13.24
2022-09-01T01:12:17.572Z,13.31
2022-09-01T01:14:28.825Z,13.31
2022-09-01T01:16:36.861Z,13.28
2022-09-01T01:18:45.317Z,13.37
2022-09-01T01:21:16.552Z,13.37
2022-09-01T01:23:31.108Z,13.29
2022-09-01T01:25:45.705Z,13.25
2022-09-01T01:27:55.603Z,13.15
2022-09-01T01:30:04.019Z,13.14
2022-09-01T01:32:18.339Z,13.09
2022-09-01T01:34:26.775Z,13.13
2022-09-01T01:36:38.096Z,13.07
2022-09-01T01:38:52.585Z,13.06
2022-09-01T01:41:03.528Z,13.04
2022-09-01T01:43:12.294Z,13.01
2022-09-01T01:45:22.550Z,12.97
2022-09-01T01:47:30.475Z,12.93
2022-09-01T01:49:41.870Z,12.91
2022-09-01T01:51:56.280Z,12.97
2022-09-01T01:54:08.531Z,13.07
2022-09-01T01:56:19.551Z,12.98
2022-09-01T01:58:30.483Z,12.94
2022-09-01T02:00:40.342Z,12.89
2022-09-01T02:02:52.434Z,12.87
2022-09-01T02:05:00.625Z,12.87
2022-09-01T02:07:10.795Z,12.93
2022-09-01T02:09:21.393Z,12.92
2022-09-01T02:11:37.969Z,12.86
2022-09-01T02:13:47.977Z,12.89
2022-09-01T02:15:57.874Z,12.90
2022-09-01T02:18:05.804Z,12.86
2022-09-01T02:20:16.134Z,12.84
2022-09-01T02:22:24.047Z,12.82
2022-09-01T02:24:32.994Z,12.79
2022-09-01T02:26:46.012Z,12.79
2022-09-01T02:28:55.994Z,12.89
2022-09-01T02:31:11.504Z,12.83
2022-09-01T02:33:23.854Z,12.85
2022-09-01T02:35:38.040Z,12.86
2022-09-01T02:37:49.517Z,12.84
2022-09-01T02:39:59.624Z,12.85
2022-09-01T02:42:11.864Z,12.85
2022-09-01T02:44:22.187Z,12.83
2022-09-01T02:46:31.278Z,12.81
2022-09-01T02:48:46.284Z,12.79
2022-09-01T02:50:59.514Z,12.84
2022-09-01T02:53:10.179Z,12.81
2022-09-01T02:55:23.078Z,12.93
2022-09-01T02:57:34.699Z,12.95
2022-09-01T02:59:45.655Z,12.98
2022-09-01T03:01:56.480Z,12.90
2022-09-01T03:04:08.272Z,12.83
2022-09-01T03:06:19.448Z,12.76
2022-09-01T03:08:28.025Z,12.78
2022-09-01T03:10:41.840Z,12.81
2022-09-01T03:12:52.685Z,12.79
2022-09-01T03:15:01.067Z,12.80
2022-09-01T03:17:09.340Z,12.87
2022-09-01T03:19:19.255Z,12.89
2022-09-01T03:21:27.924Z,12.86
2022-09-01T03:23:37.022Z,12.88
2022-09-01T03:25:46.390Z,12.88
2022-09-01T03:28:03.113Z,12.84
2022-09-01T03:30:12.823Z,12.76
2022-09-01T03:32:20.931Z,12.80
2022-09-01T03:34:28.845Z,12.71
2022-09-01T03:36:39.869Z,12.68
2022-09-01T03:38:48.828Z,12.72
2022-09-01T03:41:02.409Z,12.75
2022-09-01T03:43:14.237Z,12.77
2022-09-01T03:45:25.938Z,12.68
2022-09-01T03:47:33.823Z,12.69
2022-09-01T03:49:43.765Z,12.68
2022-09-01T03:51:53.059Z,12.68
2022-09-01T03:54:02.015Z,12.71
2022-09-01T03:56:11.728Z,12.68
2022-09-01T03:58:23.623Z,12.64
2022-09-01T04:00:38.855Z,12.63
2022-09-01T04:02:48.410Z,12.66
2022-09-01T04:05:08.579Z,12.57
2022-09-01T04:07:19.178Z,12.55
2022-09-01T04:09:27.636Z,12.53
2022-09-01T04:11:36.374Z,12.50
2022-09-01T04:13:48.352Z,12.56
2022-09-01T04:15:56.978Z,12.52
2022-09-01T04:18:09.934Z,12.47
2022-09-01T04:20:20.973Z,12.43
2022-09-01T04:22:32.142Z,12.43
2022-09-01T04:24:46.302Z,12.43
2022-09-01T04:26:56.480Z,12.40
2022-09-01T04:29:09.309Z,12.40
2022-09-01T04:31:20.606Z,12.39
2022-09-01T04:33:37.095Z,12.45
2022-09-01T04:35:45.810Z,12.47
2022-09-01T04:37:54.264Z,12.55
2022-09-01T04:40:02.788Z,12.69
2022-09-01T04:42:12.173Z,12.78
2022-09-01T04:44:25.544Z,12.87
2022-09-01T04:46:36.021Z,12.90
2022-09-01T04:48:47.852Z,13.03
2022-09-01T04:50:58.687Z,13.09
2022-09-01T04:53:12.128Z,13.17
2022-09-01T04:55:24.838Z,13.25
2022-09-01T04:57:32.844Z,13.30
2022-09-01T04:59:44.001Z,13.45
2022-09-01T05:01:55.854Z,13.49
2022-09-01T05:04:05.390Z,13.61
2022-09-01T05:06:18.523Z,13.64
2022-09-01T05:08:36.249Z,13.67
2022-09-01T05:10:52.487Z,13.70
2022-09-01T05:13:10.223Z,13.72
2022-09-01T05:15:21.338Z,13.80
2022-09-01T05:17:29.881Z,13.87
2022-09-01T05:19:38.549Z,13.92
2022-09-01T05:21:50.705Z,13.94
2022-09-01T05:24:00.876Z,13.96
2022-09-01T05:26:17.093Z,13.97
2022-09-01T05:28:27.422Z,13.97
2022-09-01T05:30:39.895Z,14.06
2022-09-01T05:32:50.933Z,14.06
2022-09-01T05:34:59.715Z,14.08
2022-09-01T05:37:08.922Z,14.15
2022-09-01T05:39:19.688Z,14.18
2022-09-01T05:41:28.670Z,14.21
2022-09-01T05:43:39.336Z,14.22
2022-09-01T05:46:06.246Z,14.34
2022-09-01T05:48:21.823Z,14.36
2022-09-01T05:50:31.542Z,14.45
2022-09-01T05:52:44.598Z,14.43
2022-09-01T05:54:52.944Z,14.46
2022-09-01T05:57:23.457Z,14.65
2022-09-01T05:59:33.502Z,14.88
2022-09-01T06:02:01.591Z,15.05
2022-09-01T06:04:11.557Z,15.15
2022-09-01T06:06:22.344Z,15.29
2022-09-01T06:08:30.286Z,15.48
2022-09-01T06:10:42.014Z,15.51
2022-09-01T06:12:54.015Z,15.60
2022-09-01T06:15:03.824Z,15.64
2022-09-01T06:17:16.766Z,15.77
2022-09-01T06:19:27.368Z,16.11
2022-09-01T06:21:36.107Z,16.27
2022-09-01T06:23:45.638Z,16.60
2022-09-01T06:25:53.926Z,16.80
2022-09-01T06:28:04.656Z,16.73
2022-09-01T06:30:23.695Z,16.89
2022-09-01T06:32:52.264Z,16.91
2022-09-01T06:35:00.601Z,17.01
2022-09-01T06:37:08.649Z,17.05
2022-09-01T06:39:20.195Z,17.20
2022-09-01T06:41:32.413Z,17.38
2022-09-01T06:43:41.916Z,17.33
2022-09-01T06:45:54.959Z,17.32
2022-09-01T06:48:07.648Z,17.44
2022-09-01T06:55:34.125Z,20.82
2022-09-01T06:58:06.564Z,24.13
2022-09-01T07:00:19.137Z,26.50
2022-09-01T07:02:30.373Z,27.56
2022-09-01T07:05:02.882Z,29.48
2022-09-01T07:10:17.723Z,31.53
2022-09-01T07:12:32.213Z,32.12
2022-09-01T07:17:27.132Z,32.54
2022-09-01T07:19:51.050Z,33.15
2022-09-01T07:22:35.259Z,33.96
2022-09-01T07:24:32.158Z,33.95
2022-09-01T07:27:09.477Z,32.06
2022-09-01T07:29:21.930Z,30.03
2022-09-01T07:31:50.590Z,27.77
2022-09-01T07:37:16.152Z,24.74
2022-09-01T07:45:26.677Z,22.36
2022-09-01T07:47:54.962Z,21.96
2022-09-01T07:50:37.373Z,21.71
2022-09-01T07:52:36.752Z,20.79
2022-09-01T07:54:47.693Z,20.20
2022-09-01T07:56:57.183Z,19.83
2022-09-01T07:59:06.346Z,19.27
2022-09-01T08:01:18.997Z,19.02
2022-09-01T08:03:29.158Z,19.26
2022-09-01T08:05:37.109Z,18.63
2022-09-01T08:07:54.597Z,18.35
2022-09-01T08:10:12.581Z,18.67
2022-09-01T08:12:28.915Z,18.82
2022-09-01T08:14:37.258Z,18.85
2022-09-01T08:16:53.404Z,18.19
2022-09-01T08:19:02.587Z,17.91
2022-09-01T08:21:37.616Z,17.72
2022-09-01T08:24:08.734Z,18.17
2022-09-01T08:26:24.088Z,18.70
2022-09-01T08:28:33.617Z,18.86
2022-09-01T08:30:51.253Z,18.70
2022-09-01T08:33:10.210Z,19.30
2022-09-01T08:35:23.253Z,19.20
2022-09-01T08:37:31.300Z,19.68
2022-09-01T08:39:39.983Z,19.48
2022-09-01T08:42:02.098Z,19.66
2022-09-01T08:44:19.651Z,19.95
2022-09-01T08:46:31.124Z,20.27
2022-09-01T08:51:30.507Z,19.41
2022-09-01T08:53:45.973Z,18.89
2022-09-01T08:55:59.223Z,19.01
2022-09-01T08:58:12.275Z,18.73
2022-09-01T09:01:00.032Z,18.38
2022-09-01T09:03:17.060Z,19.03
2022-09-01T09:05:46.249Z,19.42
2022-09-01T09:08:11.665Z,19.18
2022-09-01T09:10:24.634Z,19.27
2022-09-01T09:12:51.623Z,19.33
2022-09-01T09:15:11.926Z,19.47
2022-09-01T09:17:26.273Z,19.37
2022-09-01T09:19:36.804Z,19.40
2022-09-01T09:21:47.517Z,19.49
2022-09-01T09:24:02.098Z,19.23
2022-09-01T09:26:09.965Z,19.14
2022-09-01T09:28:17.859Z,19.55
2022-09-01T09:30:32.657Z,19.41
2022-09-01T09:33:30.529Z,19.48
2022-09-01T09:35:36.624Z,20.02
2022-09-01T09:37:44.477Z,19.72
2022-09-01T09:40:10.581Z,19.97
2022-09-01T09:42:19.618Z,20.29
2022-09-01T09:44:30.033Z,19.77
2022-09-01T09:46:43.630Z,20.34
2022-09-01T09:49:16.147Z,20.49
2022-09-01T09:51:28.840Z,20.13
2022-09-01T09:53:38.133Z,20.14
2022-09-01T09:55:58.141Z,20.10
2022-09-01T09:58:14.874Z,20.43
2022-09-01T10:00:25.584Z,20.10
2022-09-01T10:02:39.745Z,20.14
2022-09-01T10:04:48.614Z,20.08
2022-09-01T10:07:02.068Z,19.71
2022-09-01T10:09:12.153Z,19.93
2022-09-01T10:11:41.614Z,20.25
2022-09-01T10:13:49.919Z,21.27
2022-09-01T10:16:01.139Z,20.83
2022-09-01T10:18:20.839Z,21.70
2022-09-01T10:20:30.874Z,22.14
2022-09-01T10:22:40.635Z,21.50
2022-09-01T10:24:50.571Z,21.02
2022-09-01T10:27:01.956Z,21.55
2022-09-01T10:29:16.287Z,21.27
2022-09-01T10:31:32.076Z,21.61
2022-09-01T10:33:43.729Z,21.22
2022-09-01T10:35:56.838Z,21.49
2022-09-01T10:38:11.970Z,21.83
2022-09-01T10:40:41.374Z,21.69
2022-09-01T10:42:55.383Z,22.05
2022-09-01T10:45:04.003Z,21.62
2022-09-01T10:47:16.484Z,21.50
2022-09-01T10:50:07.709Z,21.45
2022-09-01T10:52:51.188Z,20.99
2022-09-01T10:55:03.661Z,20.92
2022-09-01T10:57:15.417Z,21.23
2022-09-01T10:59:31.627Z,21.14
2022-09-01T11:02:24.841Z,20.81
2022-09-01T11:05:04.869Z,20.53
2022-09-01T11:07:57.941Z,20.42
2022-09-01T11:10:33.288Z,20.11
2022-09-01T11:12:52.705Z,20.17
2022-09-01T11:15:02.760Z,20.63
2022-09-01T11:17:17.526Z,20.50
2022-09-01T11:19:44.520Z,20.75
2022-09-01T11:22:08.439Z,20.76
2022-09-01T11:24:50.822Z,20.63
2022-09-01T11:27:07.347Z,20.94
2022-09-01T11:29:46.198Z,20.82
2022-09-01T11:31:55.051Z,20.83
2022-09-01T11:34:07.397Z,21.10
2022-09-01T11:36:32.356Z,21.31
2022-09-01T11:38:49.220Z,21.15
2022-09-01T11:40:59.769Z,20.44
2022-09-01T11:43:16.532Z,20.58
2022-09-01T11:45:28.563Z,20.45
2022-09-01T11:47:41.471Z,20.77
2022-09-01T11:49:57.945Z,21.08
2022-09-01T11:52:07.848Z,20.91
2022-09-01T11:54:17.554Z,21.09
2022-09-01T11:56:29.356Z,21.23
2022-09-01T11:58:41.951Z,21.04
2022-09-01T12:00:49.945Z,21.48
2022-09-01T12:02:58.205Z,21.70
2022-09-01T12:05:26.563Z,21.78
2022-09-01T12:07:45.588Z,22.00
2022-09-01T12:09:54.418Z,22.21
2022-09-01T12:12:02.441Z,22.04
2022-09-01T12:14:15.563Z,21.31
2022-09-01T12:16:24.980Z,21.15
2022-09-01T12:18:35.693Z,20.81
2022-09-01T12:20:44.025Z,20.76
2022-09-01T12:22:52.113Z,20.48
2022-09-01T12:25:00.931Z,20.25
2022-09-01T12:27:08.919Z,20.32
2022-09-01T12:29:20.481Z,20.35
2022-09-01T12:31:29.844Z,20.42
2022-09-01T12:33:38.633Z,20.39
2022-09-01T12:35:46.709Z,20.54
2022-09-01T12:37:55.420Z,20.45
2022-09-01T12:40:03.485Z,20.56
2022-09-01T12:42:27.356Z,20.73
2022-09-01T12:44:47.790Z,21.10
2022-09-01T12:46:55.996Z,21.16
2022-09-01T12:49:19.981Z,21.23
2022-09-01T12:51:31.557Z,21.38
2022-09-01T12:53:42.432Z,21.47
2022-09-01T12:56:07.661Z,21.70
2022-09-01T12:58:15.642Z,21.44
2022-09-01T13:00:30.008Z,21.62
2022-09-01T13:02:41.416Z,21.67
2022-09-01T13:04:49.800Z,21.70
2022-09-01T13:07:00.236Z,21.74
2022-09-01T13:09:08.654Z,22.10
2022-09-01T13:11:21.480Z,22.21
2022-09-01T13:13:30.272Z,21.98
2022-09-01T13:15:42.913Z,21.93
2022-09-01T13:17:51.482Z,21.96
2022-09-01T13:19:59.407Z,22.06
2022-09-01T13:22:08.077Z,21.62
2022-09-01T13:24:18.010Z,21.45
2022-09-01T13:26:26.446Z,21.65
2022-09-01T13:28:36.436Z,21.59
2022-09-01T13:33:24.364Z,20.98
2022-09-01T13:35:32.765Z,21.07
2022-09-01T13:37:41.665Z,21.38
2022-09-01T13:39:49.999Z,21.41
2022-09-01T13:41:57.895Z,21.22
2022-09-01T13:44:06.194Z,21.08
2022-09-01T13:46:17.751Z,21.00
2022-09-01T13:49:02.124Z,21.20
2022-09-01T13:53:24.050Z,21.36
2022-09-01T13:55:33.721Z,21.39
2022-09-01T13:57:41.834Z,21.85
2022-09-01T13:59:49.689Z,21.67
2022-09-01T14:02:01.886Z,21.52
2022-09-01T14:04:10.462Z,21.21
2022-09-01T14:06:19.762Z,21.23
2022-09-01T14:08:27.836Z,21.06
2022-09-01T14:10:37.105Z,20.99
2022-09-01T14:12:46.113Z,20.83
2022-09-01T14:17:24.855Z,21.11
2022-09-01T14:19:32.684Z,21.28
2022-09-01T14:21:40.649Z,21.30
2022-09-01T14:23:48.759Z,21.23
2022-09-01T14:25:58.936Z,20.99
2022-09-01T14:28:08.068Z,20.89
2022-09-01T14:30:20.135Z,20.79
2022-09-01T14:32:31.497Z,20.84
2022-09-01T14:34:39.533Z,21.03
2022-09-01T14:36:49.940Z,21.14
2022-09-01T14:38:58.691Z,21.24
2022-09-01T14:41:06.863Z,21.34
2022-09-01T14:43:15.539Z,21.30
2022-09-01T14:45:25.949Z,21.40
2022-09-01T14:47:39.316Z,21.44
2022-09-01T14:49:48.239Z,21.38
2022-09-01T14:52:12.031Z,21.41
2022-09-01T14:54:20.199Z,21.58
2022-09-01T14:56:29.657Z,21.63
2022-09-01T14:58:37.533Z,21.59
2022-09-01T15:00:46.028Z,21.51
2022-09-01T15:02:57.811Z,21.60
2022-09-01T15:05:06.000Z,21.66
2022-09-01T15:07:15.066Z,21.49
2022-09-01T15:09:23.016Z,21.55
2022-09-01T15:11:31.242Z,21.42
2022-09-01T15:13:42.362Z,21.40
2022-09-01T15:15:52.850Z,21.46
2022-09-01T15:18:04.260Z,21.48
2022-09-01T15:20:24.752Z,21.32
2022-09-01T15:22:32.898Z,21.35
2022-09-01T15:24:40.726Z,21.39
2022-09-01T15:26:48.728Z,21.32
2022-09-01T15:28:57.035Z,21.47
2022-09-01T15:31:04.947Z,21.59
2022-09-01T15:33:16.890Z,21.43
2022-09-01T15:35:25.315Z,21.46
2022-09-01T15:37:33.185Z,21.50
2022-09-01T15:39:41.067Z,21.53
2022-09-01T15:41:48.935Z,21.59
2022-09-01T15:43:58.056Z,21.66
2022-09-01T15:46:07.988Z,21.57
2022-09-01T15:48:18.536Z,21.41
2022-09-01T15:50:29.108Z,21.20
2022-09-01T15:52:37.121Z,21.13
2022-09-01T15:54:45.010Z,21.06
2022-09-01T15:56:52.853Z,21.09
2022-09-01T15:59:02.542Z,21.04
2022-09-01T16:01:10.442Z,21.05
2022-09-01T16:03:21.260Z,21.05
2022-09-01T16:05:29.277Z,21.14
2022-09-01T16:07:37.895Z,21.18
2022-09-01T16:09:45.684Z,21.07
2022-09-01T16:11:53.902Z,21.10
2022-09-01T16:14:02.483Z,21.10
2022-09-01T16:16:22.532Z,21.05
2022-09-01T16:18:41.516Z,21.05
2022-09-01T16:20:58.222Z,20.99
2022-09-01T16:23:17.236Z,20.95
2022-09-01T16:25:31.604Z,20.91
2022-09-01T16:27:43.916Z,20.95
2022-09-01T16:29:53.915Z,20.91
2022-09-01T16:32:01.980Z,20.81
2022-09-01T16:34:18.372Z,20.68
2022-09-01T16:36:38.103Z,20.64
2022-09-01T16:38:51.379Z,20.58
2022-09-01T16:41:07.958Z,20.54
2022-09-01T16:43:26.899Z,20.46
2022-09-01T16:45:45.429Z,20.49
2022-09-01T16:48:06.505Z,20.50
2022-09-01T16:50:26.125Z,20.44
2022-09-01T16:52:46.620Z,20.45
2022-09-01T16:55:18.620Z,20.44
2022-09-01T16:57:35.013Z,20.37
2022-09-01T16:59:55.690Z,20.32
2022-09-01T17:02:15.922Z,20.21
2022-09-01T17:04:35.737Z,20.22
2022-09-01T17:06:55.859Z,20.12
2022-09-01T17:09:13.191Z,20.10
2022-09-01T17:11:32.663Z,20.06
2022-09-01T17:13:44.238Z,20.01
2022-09-01T17:15:58.215Z,19.90
2022-09-01T17:18:22.423Z,19.88
2022-09-01T17:20:35.684Z,19.81
2022-09-01T17:22:54.333Z,19.78
2022-09-01T17:25:07.933Z,19.74
2022-09-01T17:27:23.257Z,19.67
2022-09-01T17:29:34.538Z,19.56
2022-09-01T17:31:54.400Z,19.50
2022-09-01T17:34:12.045Z,19.41
2022-09-01T17:36:27.396Z,19.30
2022-09-01T17:38:54.267Z,19.24
2022-09-01T17:41:13.669Z,19.17
2022-09-01T17:43:26.455Z,19.08
2022-09-01T17:45:47.863Z,19.03
2022-09-01T17:48:07.636Z,18.88
2022-09-01T17:50:20.639Z,18.81
2022-09-01T17:52:52.555Z,18.70
2022-09-01T17:55:09.069Z,18.59
2022-09-01T17:57:24.605Z,18.45
2022-09-01T17:59:40.497Z,18.31
2022-09-01T18:01:58.652Z,18.21
2022-09-01T18:04:52.154Z,18.08
2022-09-01T18:07:06.958Z,17.96
2022-09-01T18:09:23.087Z,17.88
2022-09-01T18:11:37.948Z,17.77
2022-09-01T18:13:53.737Z,17.64
2022-09-01T18:16:04.963Z,17.56
2022-09-01T18:18:26.777Z,17.43
2022-09-01T18:20:43.882Z,17.35
2022-09-01T18:22:55.892Z,17.39
2022-09-01T18:25:11.462Z,17.38
2022-09-01T18:27:24.652Z,17.31
2022-09-01T18:29:34.780Z,17.19
2022-09-01T18:32:11.594Z,17.14
2022-09-01T18:34:28.296Z,17.09
2022-09-01T18:36:48.075Z,17.20
2022-09-01T18:39:01.040Z,17.17
2022-09-01T18:41:31.370Z,17.13
2022-09-01T18:43:46.888Z,17.07
2022-09-01T18:46:02.858Z,16.99
2022-09-01T18:48:24.861Z,16.92
2022-09-01T18:50:37.553Z,16.89
2022-09-01T18:53:02.678Z,16.83
2022-09-01T18:55:21.527Z,16.72
2022-09-01T18:57:36.735Z,16.85
2022-09-01T19:00:04.884Z,17.00
2022-09-01T19:02:40.428Z,17.00
2022-09-01T19:04:49.084Z,17.17
2022-09-01T19:07:07.325Z,17.33
2022-09-01T19:09:20.434Z,17.35
2022-09-01T19:11:43.322Z,17.30
2022-09-01T19:14:06.615Z,17.26
2022-09-01T19:16:31.942Z,17.34
2022-09-01T19:18:46.374Z,17.33
2022-09-01T19:21:01.278Z,17.18
2022-09-01T19:23:13.798Z,17.14
2022-09-01T19:25:36.150Z,17.15
2022-09-01T19:27:45.904Z,17.12
2022-09-01T19:29:57.812Z,17.05
2022-09-01T19:32:20.132Z,17.03
2022-09-01T19:34:31.667Z,17.00
2022-09-01T19:36:45.673Z,17.00
2022-09-01T19:39:01.380Z,16.95
2022-09-01T19:41:19.252Z,16.90
2022-09-01T19:43:29.837Z,16.97
2022-09-01T19:45:47.411Z,16.94
2022-09-01T19:48:05.746Z,16.89
2022-09-01T19:50:18.517Z,16.89
2022-09-01T19:52:35.420Z,16.82
2022-09-01T19:54:52.779Z,16.86
2022-09-01T19:57:11.580Z,16.71
2022-09-01T19:59:25.291Z,16.66
2022-09-01T20:01:43.459Z,16.61
2022-09-01T20:04:01.109Z,16.52
2022-09-01T20:06:14.275Z,16.38
2022-09-01T20:08:31.394Z,16.20
2022-09-01T20:10:56.551Z,16.03
2022-09-01T20:13:33.504Z,16.05
2022-09-01T20:15:50.447Z,16.00
2022-09-01T20:18:05.759Z,15.90
2022-09-01T20:20:19.383Z,15.88
2022-09-01T20:22:35.909Z,15.85
2022-09-01T20:24:45.718Z,15.85
2022-09-01T20:27:01.860Z,15.92
2022-09-01T20:29:27.414Z,15.93
2022-09-01T20:31:39.422Z,15.95
2022-09-01T20:33:52.269Z,15.89
2022-09-01T20:36:10.166Z,15.98
2022-09-01T20:38:39.503Z,16.03
2022-09-01T20:40:50.654Z,16.13
2022-09-01T20:43:12.636Z,16.17
2022-09-01T20:45:23.237Z,16.17
2022-09-01T20:47:34.660Z,16.14
2022-09-01T20:49:43.741Z,16.09
2022-09-01T20:51:58.693Z,16.04
2022-09-01T20:54:27.292Z,16.18
2022-09-01T20:56:45.653Z,16.25
2022-09-01T20:59:01.340Z,16.13
2022-09-01T21:01:19.545Z,16.16
2022-09-01T21:03:40.044Z,16.11
2022-09-01T21:06:01.653Z,16.13
2022-09-01T21:08:28.492Z,16.18
2022-09-01T21:10:43.913Z,16.16
2022-09-01T21:12:54.833Z,16.21
2022-09-01T21:15:12.466Z,16.18
2022-09-01T21:17:29.519Z,16.22
2022-09-01T21:19:47.841Z,16.33
2022-09-01T21:22:06.987Z,16.20
2022-09-01T21:24:20.728Z,16.11
2022-09-01T21:26:31.298Z,16.16
2022-09-01T21:28:45.103Z,16.23
2022-09-01T21:30:57.763Z,16.20
2022-09-01T21:33:06.662Z,16.21
2022-09-01T21:35:19.060Z,16.18
2022-09-01T21:37:28.385Z,16.17
2022-09-01T21:39:39.560Z,16.15
2022-09-01T21:41:47.519Z,16.12
2022-09-01T21:43:55.462Z,16.05
2022-09-01T21:46:03.765Z,16.15
2022-09-01T21:48:11.930Z,16.09
2022-09-01T21:50:22.456Z,16.07
2022-09-01T21:52:31.083Z,16.01
2022-09-01T21:54:41.713Z,16.02
2022-09-01T21:56:53.502Z,16.02
2022-09-01T21:59:03.444Z,15.91
2022-09-01T22:01:14.275Z,15.87
2022-09-01T22:03:22.697Z,15.93
2022-09-01T22:05:33.497Z,15.91
2022-09-01T22:07:45.569Z,15.77
2022-09-01T22:09:57.792Z,15.81
2022-09-01T22:12:06.307Z,15.82
2022-09-01T22:14:14.495Z,15.77
2022-09-01T22:16:23.648Z,15.73
2022-09-01T22:18:31.825Z,15.68
2022-09-01T22:20:40.369Z,15.68
2022-09-01T22:22:48.852Z,15.71
2022-09-01T22:24:59.436Z,15.60
2022-09-01T22:27:07.650Z,15.58
2022-09-01T22:29:15.924Z,15.57
2022-09-01T22:31:24.606Z,15.47
2022-09-01T22:33:33.668Z,15.50
2022-09-01T22:35:43.991Z,15.51
2022-09-01T22:37:52.537Z,15.43
2022-09-01T22:40:03.108Z,15.30
2022-09-01T22:42:11.041Z,15.30
2022-09-01T22:44:18.904Z,15.28
2022-09-01T22:46:27.112Z,15.22
2022-09-01T22:48:35.389Z,15.14
2022-09-01T22:50:44.395Z,15.24
2022-09-01T22:52:52.225Z,15.18
2022-09-01T22:55:03.337Z,15.13
2022-09-01T22:57:11.959Z,15.07
2022-09-01T22:59:19.807Z,14.98
2022-09-01T23:01:33.095Z,14.87
2022-09-01T23:03:43.653Z,14.82
2022-09-01T23:05:54.650Z,14.76
2022-09-01T23:08:24.635Z,14.68
2022-09-01T23:10:40.532Z,14.60
2022-09-01T23:12:48.842Z,14.76
2022-09-01T23:14:56.644Z,14.67
2022-09-01T23:17:04.474Z,14.66
2022-09-01T23:19:12.255Z,14.65
2022-09-01T23:21:23.204Z,14.65
2022-09-01T23:23:31.456Z,14.64
2022-09-01T23:25:43.945Z,14.71
2022-09-01T23:27:53.717Z,14.72
2022-09-01T23:30:01.826Z,14.63
2022-09-01T23:32:09.810Z,14.56
2022-09-01T23:34:17.671Z,14.56
2022-09-01T23:36:28.995Z,14.54
2022-09-01T23:38:37.263Z,14.56
2022-09-01T23:40:52.025Z,14.61
2022-09-01T23:43:00.036Z,14.58
2022-09-01T23:45:09.299Z,14.58
2022-09-01T23:47:17.330Z,14.57
2022-09-01T23:51:51.041Z,14.57
2022-09-01T23:53:59.497Z,14.48
2022-09-01T23:56:14.320Z,14.52
2022-09-01T23:58:24.212Z,14.41
